createdAt,value
2023-04-28T00:00:35.113Z,8.45
2023-04-28T00:03:14.623Z,8.39
2023-04-28T00:05:54.221Z,8.45
2023-04-28T00:08:33.529Z,8.44
2023-04-28T00:11:17.102Z,8.49
2023-04-28T00:13:56.390Z,8.34
2023-04-28T00:16:41.049Z,8.10
2023-04-28T00:19:20.578Z,8.29
2023-04-28T00:22:00.055Z,8.10
2023-04-28T00:24:39.941Z,8.00
2023-04-28T00:27:19.182Z,8.45
2023-04-28T00:29:58.860Z,8.09
2023-04-28T00:32:43.262Z,8.44
2023-04-28T00:35:22.559Z,8.33
2023-04-28T00:38:01.871Z,8.36
2023-04-28T00:40:41.708Z,8.16
2023-04-28T00:43:21.515Z,8.46
2023-04-28T00:46:00.993Z,8.21
2023-04-28T00:48:46.180Z,7.95
2023-04-28T00:51:25.859Z,8.17
2023-04-28T00:54:05.352Z,7.89
2023-04-28T00:56:44.911Z,8.76
2023-04-28T00:59:24.188Z,8.47
2023-04-28T01:02:03.816Z,8.47
2023-04-28T01:04:48.511Z,8.77
2023-04-28T01:07:27.857Z,8.30
2023-04-28T01:10:07.145Z,8.30
2023-04-28T01:12:46.546Z,8.24
2023-04-28T01:15:27.728Z,8.24
2023-04-28T01:18:07.130Z,8.07
2023-04-28T01:20:51.705Z,8.08
2023-04-28T01:23:31.027Z,8.34
2023-04-28T01:26:15.428Z,8.41
2023-04-28T01:28:54.782Z,8.17
2023-04-28T01:31:34.085Z,8.32
2023-04-28T01:34:13.968Z,8.77
2023-04-28T01:36:53.460Z,8.49
2023-04-28T01:39:32.790Z,8.41
2023-04-28T01:42:17.287Z,8.36
2023-04-28T01:44:56.608Z,8.57
2023-04-28T01:47:35.973Z,8.56
2023-04-28T01:50:16.049Z,8.43
2023-04-28T01:52:55.328Z,8.81
2023-04-28T01:55:34.656Z,8.86
2023-04-28T01:58:18.998Z,8.86
2023-04-28T02:00:58.668Z,8.18
2023-04-28T02:03:38.197Z,8.62
2023-04-28T02:06:17.760Z,8.76
2023-04-28T02:08:57.216Z,8.41
2023-04-28T02:11:36.550Z,8.51
2023-04-28T02:14:20.937Z,8.35
2023-04-28T02:17:00.213Z,8.29
2023-04-28T02:19:39.901Z,9.69
2023-04-28T02:22:19.255Z,9.72
2023-04-28T02:24:59.076Z,9.16
2023-04-28T02:27:38.381Z,8.94
2023-04-28T02:30:23.385Z,8.62
2023-04-28T02:33:02.684Z,8.75
2023-04-28T02:35:42.016Z,8.85
2023-04-28T02:38:21.285Z,8.63
2023-04-28T02:41:07.382Z,9.14
2023-04-28T02:43:46.685Z,8.89
2023-04-28T02:46:31.166Z,9.20
2023-04-28T02:49:10.468Z,8.92
2023-04-28T02:51:49.814Z,8.88
2023-04-28T02:54:35.438Z,9.25
2023-04-28T02:57:14.753Z,10.10
2023-04-28T02:59:54.054Z,9.71
2023-04-28T03:02:38.521Z,10.59
2023-04-28T03:05:17.901Z,9.82
2023-04-28T03:07:57.151Z,10.06
2023-04-28T03:10:36.497Z,10.46
2023-04-28T03:13:15.770Z,10.63
2023-04-28T03:15:56.426Z,10.12
2023-04-28T03:18:41.058Z,10.33
2023-04-28T03:21:20.344Z,9.67
2023-04-28T03:23:59.653Z,9.58
2023-04-28T03:26:38.972Z,10.15
2023-04-28T03:29:18.809Z,9.85
2023-04-28T03:31:58.192Z,9.60
2023-04-28T03:34:42.870Z,9.59
2023-04-28T03:37:22.229Z,10.01
2023-04-28T03:40:01.531Z,9.63
2023-04-28T03:42:40.869Z,9.73
2023-04-28T03:45:20.114Z,9.67
2023-04-28T03:47:59.543Z,9.50
2023-04-28T03:50:44.664Z,9.64
2023-04-28T03:53:23.924Z,9.22
2023-04-28T03:56:03.259Z,9.77
2023-04-28T03:58:42.653Z,9.92
2023-04-28T04:01:22.063Z,10.00
2023-04-28T04:04:01.570Z,9.91
2023-04-28T04:06:46.215Z,10.11
2023-04-28T04:09:25.689Z,9.92
2023-04-28T04:12:05.381Z,10.52
2023-04-28T04:14:44.706Z,11.31
2023-04-28T04:17:24.137Z,10.47
2023-04-28T04:20:03.450Z,10.24
2023-04-28T04:22:48.323Z,10.47
2023-04-28T04:25:27.741Z,10.98
2023-04-28T04:28:07.316Z,10.79
2023-04-28T04:30:46.841Z,10.53
2023-04-28T04:33:26.486Z,10.01
2023-04-28T04:36:06.112Z,10.11
2023-04-28T04:38:52.487Z,10.25
2023-04-28T04:41:33.563Z,10.38
2023-04-28T04:44:14.265Z,10.50
2023-04-28T04:46:54.221Z,10.73
2023-04-28T04:49:33.553Z,10.07
2023-04-28T04:52:13.208Z,10.43
2023-04-28T04:54:57.725Z,10.63
2023-04-28T04:57:37.445Z,10.80
2023-04-28T05:00:18.277Z,11.57
2023-04-28T05:02:57.871Z,10.45
2023-04-28T05:05:37.362Z,10.81
2023-04-28T05:08:16.850Z,10.96
2023-04-28T05:11:01.279Z,10.50
2023-04-28T05:13:41.756Z,11.11
2023-04-28T05:16:21.211Z,11.27
2023-04-28T05:19:00.871Z,11.54
2023-04-28T05:21:40.246Z,12.22
2023-04-28T05:24:19.577Z,12.96
2023-04-28T05:27:06.796Z,12.84
2023-04-28T05:29:46.132Z,12.88
2023-04-28T05:32:25.505Z,11.09
2023-04-28T05:35:04.900Z,11.11
2023-04-28T05:37:44.807Z,11.17
2023-04-28T05:40:24.363Z,11.72
2023-04-28T05:43:08.912Z,11.83
2023-04-28T05:45:48.352Z,13.45
2023-04-28T05:48:27.819Z,12.84
2023-04-28T05:51:07.133Z,12.97
2023-04-28T05:53:53.294Z,13.08
2023-04-28T05:56:32.998Z,13.69
2023-04-28T05:59:21.300Z,13.18
2023-04-28T06:02:00.674Z,13.05
2023-04-28T06:04:40.582Z,13.00
2023-04-28T06:07:20.298Z,12.96
2023-04-28T06:09:59.575Z,11.67
2023-04-28T06:12:39.514Z,11.81
2023-04-28T06:15:24.247Z,12.22
2023-04-28T06:18:03.805Z,11.48
2023-04-28T06:20:43.275Z,12.22
2023-04-28T06:23:22.668Z,11.72
2023-04-28T06:26:02.025Z,11.73
2023-04-28T06:28:41.391Z,12.01
2023-04-28T06:31:25.849Z,12.66
2023-04-28T06:34:05.272Z,12.83
2023-04-28T06:36:44.718Z,12.55
2023-04-28T06:39:24.170Z,12.81
2023-04-28T06:42:04.461Z,13.52
2023-04-28T06:44:43.806Z,13.49
2023-04-28T06:47:28.316Z,13.53
2023-04-28T06:50:08.179Z,13.45
2023-04-28T06:52:48.256Z,13.95
2023-04-28T06:55:28.046Z,14.54
2023-04-28T06:58:07.481Z,14.49
2023-04-28T07:00:47.130Z,14.65
2023-04-28T07:03:31.890Z,14.75
2023-04-28T07:06:14.550Z,15.17
2023-04-28T07:08:53.927Z,14.52
2023-04-28T07:11:34.755Z,15.03
2023-04-28T07:14:14.890Z,14.75
2023-04-28T07:16:54.896Z,15.10
2023-04-28T07:19:39.390Z,14.90
2023-04-28T07:22:18.818Z,14.97
2023-04-28T07:24:58.179Z,16.37
2023-04-28T07:27:38.090Z,15.18
2023-04-28T07:30:27.457Z,15.41
2023-04-28T07:33:07.744Z,15.31
2023-04-28T07:35:53.810Z,14.59
2023-04-28T07:38:33.670Z,15.47
2023-04-28T07:41:14.292Z,18.61
2023-04-28T07:43:54.028Z,19.71
2023-04-28T07:46:33.601Z,18.37
2023-04-28T07:49:12.995Z,18.49
2023-04-28T07:51:57.836Z,20.73
2023-04-28T07:54:37.358Z,21.28
2023-04-28T07:57:17.137Z,21.30
2023-04-28T07:59:56.560Z,19.17
2023-04-28T08:02:36.108Z,17.37
2023-04-28T08:05:16.432Z,15.81
2023-04-28T08:08:01.239Z,16.62
2023-04-28T08:10:41.785Z,15.56
2023-04-28T08:13:21.189Z,15.91
2023-04-28T08:16:01.629Z,15.81
2023-04-28T08:18:41.234Z,16.27
2023-04-28T08:21:20.584Z,16.06
2023-04-28T08:24:04.993Z,15.96
2023-04-28T08:26:44.507Z,15.99
2023-04-28T08:29:24.217Z,16.09
2023-04-28T08:32:03.708Z,16.23
2023-04-28T08:34:43.307Z,16.90
2023-04-28T08:37:22.966Z,20.10
2023-04-28T08:40:10.900Z,23.81
2023-04-28T08:42:51.865Z,25.44
2023-04-28T08:45:31.915Z,21.94
2023-04-28T08:48:13.595Z,21.61
2023-04-28T08:50:57.895Z,22.07
2023-04-28T08:53:59.295Z,21.82
2023-04-28T08:56:46.572Z,21.39
2023-04-28T08:59:27.205Z,20.60
2023-04-28T09:02:06.734Z,21.04
2023-04-28T09:04:46.222Z,21.54
2023-04-28T09:07:25.686Z,22.03
2023-04-28T09:10:24.412Z,20.43
2023-04-28T09:13:08.872Z,19.04
2023-04-28T09:15:48.371Z,19.21
2023-04-28T09:18:27.691Z,18.73
2023-04-28T09:21:11.788Z,18.78
2023-04-28T09:23:56.571Z,19.01
2023-04-28T09:26:35.950Z,19.12
2023-04-28T09:29:26.192Z,18.84
2023-04-28T09:32:20.898Z,20.00
2023-04-28T09:35:03.708Z,18.99
2023-04-28T09:37:44.751Z,18.33
2023-04-28T09:40:24.243Z,18.98
2023-04-28T09:43:11.901Z,19.31
2023-04-28T09:46:07.516Z,20.41
2023-04-28T09:48:47.267Z,20.44
2023-04-28T09:51:28.661Z,27.05
2023-04-28T09:54:10.118Z,21.76
2023-04-28T09:56:53.576Z,21.12
2023-04-28T09:59:36.653Z,22.50
2023-04-28T10:02:42.880Z,20.79
2023-04-28T10:05:24.488Z,19.17
2023-04-28T10:08:04.943Z,20.01
2023-04-28T10:10:45.690Z,22.24
2023-04-28T10:13:25.183Z,20.49
2023-04-28T10:16:04.582Z,20.46
2023-04-28T10:18:50.176Z,19.74
2023-04-28T10:21:31.905Z,19.76
2023-04-28T10:24:18.128Z,21.05
2023-04-28T10:27:10.741Z,19.91
2023-04-28T10:29:50.447Z,19.86
2023-04-28T10:32:34.188Z,20.61
2023-04-28T10:35:44.129Z,20.87
2023-04-28T10:38:28.832Z,21.51
2023-04-28T10:41:08.612Z,20.50
2023-04-28T10:43:48.065Z,20.38
2023-04-28T10:46:27.526Z,20.26
2023-04-28T10:49:07.071Z,20.11
2023-04-28T10:51:46.394Z,20.72
2023-04-28T10:54:31.536Z,19.36
2023-04-28T10:57:27.745Z,19.60
2023-04-28T11:00:34.884Z,19.55
2023-04-28T11:03:14.481Z,19.28
2023-04-28T11:06:24.985Z,19.55
2023-04-28T11:09:05.894Z,19.14
2023-04-28T11:12:13.792Z,19.01
2023-04-28T11:14:53.618Z,19.64
2023-04-28T11:17:48.592Z,20.37
2023-04-28T11:20:30.864Z,20.51
2023-04-28T11:23:12.272Z,20.11
2023-04-28T11:26:04.786Z,19.91
2023-04-28T11:28:54.966Z,20.03
2023-04-28T11:31:34.408Z,20.25
2023-04-28T11:34:17.987Z,20.65
2023-04-28T11:36:57.409Z,20.27
2023-04-28T11:39:38.641Z,23.30
2023-04-28T11:42:19.040Z,19.84
2023-04-28T11:45:03.530Z,19.55
2023-04-28T11:47:42.901Z,19.11
2023-04-28T11:50:22.943Z,19.49
2023-04-28T11:53:02.280Z,19.40
2023-04-28T11:55:41.656Z,23.61
2023-04-28T11:58:29.111Z,26.21
2023-04-28T12:01:21.552Z,23.06
2023-04-28T12:04:01.611Z,48.80
2023-04-28T12:06:41.155Z,52.82
2023-04-28T12:09:27.076Z,36.27
2023-04-28T12:12:08.697Z,49.54
2023-04-28T12:15:06.194Z,32.21
2023-04-28T12:17:52.071Z,36.17
2023-04-28T12:20:45.737Z,31.59
2023-04-28T12:23:37.285Z,36.31
2023-04-28T12:26:16.992Z,21.81
2023-04-28T12:28:56.343Z,21.00
2023-04-28T12:31:37.837Z,22.74
2023-04-28T12:34:22.403Z,21.34
2023-04-28T12:37:01.821Z,21.22
2023-04-28T12:39:42.318Z,21.22
2023-04-28T12:42:24.058Z,20.79
2023-04-28T12:45:03.370Z,20.88
2023-04-28T12:47:43.276Z,19.62
2023-04-28T12:50:29.078Z,19.65
2023-04-28T12:53:38.572Z,20.78
2023-04-28T12:56:17.998Z,22.00
2023-04-28T12:58:57.582Z,20.83
2023-04-28T13:01:37.294Z,20.52
2023-04-28T13:04:16.876Z,21.47
2023-04-28T13:07:01.549Z,21.25
2023-04-28T13:09:40.915Z,21.47
2023-04-28T13:12:20.265Z,20.02
2023-04-28T13:14:59.610Z,19.41
2023-04-28T13:17:39.270Z,20.69
2023-04-28T13:20:19.368Z,20.59
2023-04-28T13:23:04.764Z,19.01
2023-04-28T13:25:44.199Z,18.91
2023-04-28T13:28:23.558Z,16.74
2023-04-28T13:31:02.937Z,17.58
2023-04-28T13:33:42.330Z,17.20
2023-04-28T13:36:21.757Z,17.90
2023-04-28T13:39:07.633Z,18.90
2023-04-28T13:41:46.985Z,19.02
2023-04-28T13:44:26.311Z,18.78
2023-04-28T13:47:10.263Z,21.35
2023-04-28T13:49:50.478Z,22.57
2023-04-28T13:52:29.809Z,20.99
2023-04-28T13:55:14.545Z,20.30
2023-04-28T13:57:53.935Z,18.43
2023-04-28T14:00:33.616Z,19.52
2023-04-28T14:03:13.276Z,18.75
2023-04-28T14:05:52.888Z,16.63
2023-04-28T14:08:32.866Z,15.87
2023-04-28T14:11:19.540Z,13.31
2023-04-28T14:14:00.692Z,14.46
2023-04-28T14:16:40.170Z,16.15
2023-04-28T14:19:19.785Z,15.83
2023-04-28T14:22:02.174Z,28.45
2023-04-28T14:24:41.491Z,53.57
2023-04-28T14:27:25.982Z,15.35
2023-04-28T14:30:05.301Z,16.18
2023-04-28T14:32:45.238Z,18.10
2023-04-28T14:35:25.500Z,16.95
2023-04-28T14:38:05.553Z,14.18
2023-04-28T14:40:44.921Z,13.23
2023-04-28T14:43:29.470Z,11.93
2023-04-28T14:46:09.140Z,12.34
2023-04-28T14:48:48.729Z,11.99
2023-04-28T14:51:28.936Z,10.51
2023-04-28T14:54:10.379Z,9.86
2023-04-28T14:56:49.687Z,9.13
2023-04-28T14:59:35.116Z,10.00
2023-04-28T15:02:15.297Z,9.09
2023-04-28T15:04:54.983Z,8.92
2023-04-28T15:07:34.944Z,8.67
2023-04-28T15:10:15.545Z,7.99
2023-04-28T15:12:55.751Z,9.01
2023-04-28T15:15:40.196Z,8.46
2023-04-28T15:18:19.534Z,8.50
2023-04-28T15:20:59.047Z,9.90
2023-04-28T15:23:38.609Z,11.13
2023-04-28T15:26:17.944Z,9.70
2023-04-28T15:28:57.571Z,9.89
2023-04-28T15:31:42.843Z,11.57
2023-04-28T15:34:22.350Z,12.72
2023-04-28T15:37:02.156Z,8.45
2023-04-28T15:39:41.470Z,6.10
2023-04-28T15:42:20.782Z,5.08
2023-04-28T15:45:01.129Z,12.39
2023-04-28T15:47:46.371Z,2.80
2023-04-28T15:50:26.261Z,2.22
2023-04-28T15:53:05.632Z,1.91
2023-04-28T15:55:45.541Z,2.22
2023-04-28T15:58:24.861Z,2.50
2023-04-28T16:01:06.444Z,2.93
2023-04-28T16:03:51.051Z,2.53
2023-04-28T16:06:31.504Z,2.85
2023-04-28T16:09:10.976Z,3.14
2023-04-28T16:11:50.372Z,4.35
2023-04-28T16:14:29.665Z,5.75
2023-04-28T16:17:09.100Z,3.56
2023-04-28T16:19:53.558Z,3.52
2023-04-28T16:22:33.682Z,1.82
2023-04-28T16:25:13.792Z,1.51
2023-04-28T16:27:53.519Z,1.22
2023-04-28T16:30:33.876Z,1.15
2023-04-28T16:33:13.178Z,1.40
2023-04-28T16:36:01.777Z,1.60
2023-04-28T16:38:41.152Z,1.32
2023-04-28T16:41:20.420Z,1.23
2023-04-28T16:43:59.708Z,1.26
2023-04-28T16:46:38.974Z,1.13
2023-04-28T16:49:18.496Z,1.27
2023-04-28T16:52:11.203Z,1.16
2023-04-28T16:54:50.476Z,1.07
2023-04-28T16:57:29.780Z,1.20
2023-04-28T17:00:09.070Z,1.33
2023-04-28T17:02:48.382Z,1.21
2023-04-28T17:05:27.792Z,1.35
2023-04-28T17:08:12.315Z,2.01
2023-04-28T17:10:51.704Z,1.35
2023-04-28T17:13:31.013Z,1.17
2023-04-28T17:16:12.627Z,1.27
2023-04-28T17:18:54.051Z,1.28
2023-04-28T17:21:34.941Z,1.31
2023-04-28T17:24:19.479Z,1.14
2023-04-28T17:26:58.847Z,1.13
2023-04-28T17:29:38.101Z,1.18
2023-04-28T17:32:17.452Z,1.18
2023-04-28T17:34:56.671Z,1.28
2023-04-28T17:37:38.924Z,1.74
2023-04-28T17:40:25.314Z,7.08
2023-04-28T17:43:05.349Z,7.00
2023-04-28T17:45:45.009Z,5.37
2023-04-28T17:48:24.298Z,5.61
2023-04-28T17:51:03.635Z,5.68
2023-04-28T17:53:43.573Z,2.62
2023-04-28T17:56:28.197Z,2.22
2023-04-28T17:59:07.550Z,2.42
2023-04-28T18:01:46.849Z,2.21
2023-04-28T18:04:26.257Z,2.09
2023-04-28T18:07:05.570Z,1.34
2023-04-28T18:09:44.874Z,1.35
2023-04-28T18:12:29.465Z,2.70
2023-04-28T18:15:09.293Z,3.19
2023-04-28T18:17:48.725Z,2.91
2023-04-28T18:20:28.090Z,4.39
2023-04-28T18:23:07.385Z,3.96
2023-04-28T18:25:47.225Z,3.33
2023-04-28T18:28:31.825Z,3.93
2023-04-28T18:31:12.711Z,3.15
2023-04-28T18:33:52.041Z,2.92
2023-04-28T18:36:31.614Z,2.81
2023-04-28T18:39:11.283Z,2.33
2023-04-28T18:41:51.207Z,2.26
2023-04-28T18:44:35.731Z,2.42
2023-04-28T18:47:16.837Z,2.55
2023-04-28T18:49:56.206Z,1.65
2023-04-28T18:52:35.537Z,2.33
2023-04-28T18:55:15.594Z,2.03
2023-04-28T18:57:54.932Z,1.77
2023-04-28T19:00:41.306Z,4.14
2023-04-28T19:03:20.905Z,1.57
2023-04-28T19:06:00.314Z,1.61
2023-04-28T19:08:40.281Z,1.37
2023-04-28T19:11:19.540Z,1.40
2023-04-28T19:13:58.956Z,1.33
2023-04-28T19:16:43.580Z,1.27
2023-04-28T19:19:22.934Z,1.49
2023-04-28T19:22:02.212Z,2.00
2023-04-28T19:24:41.559Z,2.47
2023-04-28T19:27:20.829Z,3.02
2023-04-28T19:30:02.058Z,3.12
2023-04-28T19:32:47.419Z,3.48
2023-04-28T19:35:27.388Z,3.37
2023-04-28T19:38:06.677Z,3.42
2023-04-28T19:40:46.476Z,3.08
2023-04-28T19:43:25.703Z,2.50
2023-04-28T19:46:05.051Z,2.32
2023-04-28T19:48:49.475Z,2.25
2023-04-28T19:51:29.141Z,2.21
2023-04-28T19:54:08.773Z,2.22
2023-04-28T19:56:48.065Z,2.14
2023-04-28T19:59:27.623Z,2.37
2023-04-28T20:02:09.086Z,2.31
2023-04-28T20:04:53.852Z,2.21
2023-04-28T20:07:33.241Z,3.04
2023-04-28T20:10:14.313Z,2.83
2023-04-28T20:15:38.889Z,3.16
2023-04-28T20:18:18.250Z,2.32
2023-04-28T20:21:04.738Z,2.27
2023-04-28T20:23:43.998Z,2.53
2023-04-28T20:26:27.534Z,2.92
2023-04-28T20:29:08.494Z,2.81
2023-04-28T20:31:49.477Z,8.59
2023-04-28T20:34:29.348Z,9.78
2023-04-28T20:37:16.746Z,8.11
2023-04-28T20:39:56.749Z,2.56
2023-04-28T20:42:36.079Z,2.74
2023-04-28T20:45:16.321Z,2.70
2023-04-28T20:47:56.618Z,3.09
2023-04-28T20:50:37.440Z,3.48
2023-04-28T20:53:21.845Z,3.10
2023-04-28T20:56:01.129Z,2.93
2023-04-28T20:58:43.603Z,3.17
2023-04-28T21:01:23.093Z,3.20
2023-04-28T21:04:02.647Z,3.36
2023-04-28T21:06:42.228Z,3.33
2023-04-28T21:09:27.814Z,3.41
2023-04-28T21:12:07.196Z,4.16
2023-04-28T21:14:46.470Z,5.99
2023-04-28T21:17:25.803Z,6.62
2023-04-28T21:20:05.324Z,6.16
2023-04-28T21:22:44.599Z,5.81
2023-04-28T21:25:29.345Z,6.26
2023-04-28T21:28:08.599Z,6.41
2023-04-28T21:30:47.968Z,5.40
2023-04-28T21:33:27.707Z,6.35
2023-04-28T21:36:13.642Z,4.45
2023-04-28T21:38:53.037Z,3.32
2023-04-28T21:41:38.588Z,3.44
2023-04-28T21:44:17.950Z,3.43
2023-04-28T21:46:57.273Z,3.33
2023-04-28T21:49:36.854Z,3.74
2023-04-28T21:52:16.438Z,3.83
2023-04-28T21:54:55.801Z,3.97
2023-04-28T21:57:40.192Z,4.96
2023-04-28T22:00:20.367Z,5.16
2023-04-28T22:03:00.558Z,5.59
2023-04-28T22:05:44.993Z,6.08
2023-04-28T22:08:24.664Z,6.08
2023-04-28T22:11:04.213Z,5.29
2023-04-28T22:13:48.644Z,5.31
2023-04-28T22:16:28.203Z,5.38
2023-04-28T22:19:07.495Z,5.24
2023-04-28T22:21:46.765Z,5.19
2023-04-28T22:24:26.026Z,4.19
2023-04-28T22:27:05.624Z,7.53
2023-04-28T22:29:50.196Z,8.38
2023-04-28T22:32:30.431Z,6.65
2023-04-28T22:35:10.209Z,4.55
2023-04-28T22:37:49.897Z,4.05
2023-04-28T22:40:29.171Z,4.40
2023-04-28T22:43:08.504Z,4.40
2023-04-28T22:45:54.376Z,5.53
2023-04-28T22:48:34.580Z,8.72
2023-04-28T22:51:13.931Z,8.28
2023-04-28T22:53:55.424Z,7.38
2023-04-28T22:56:34.722Z,5.14
2023-04-28T22:59:14.010Z,5.03
2023-04-28T23:01:58.621Z,5.42
2023-04-28T23:04:38.177Z,5.54
2023-04-28T23:07:17.636Z,5.42
2023-04-28T23:09:57.111Z,5.69
2023-04-28T23:12:36.374Z,7.98
2023-04-28T23:15:16.327Z,7.56
2023-04-28T23:18:00.748Z,6.39
2023-04-28T23:20:41.068Z,5.47
2023-04-28T23:23:20.309Z,5.43
2023-04-28T23:25:59.779Z,5.64
2023-04-28T23:28:39.143Z,5.36
2023-04-28T23:31:18.679Z,5.90
2023-04-28T23:34:05.200Z,5.64
2023-04-28T23:36:45.043Z,5.49
2023-04-28T23:39:24.393Z,5.50
2023-04-28T23:42:03.866Z,5.62
2023-04-28T23:44:43.141Z,5.77
2023-04-28T23:47:22.428Z,5.91
2023-04-28T23:50:07.334Z,6.53
2023-04-28T23:52:47.374Z,6.58
2023-04-28T23:55:27.017Z,6.53
2023-04-28T23:58:06.340Z,6.73
